sensor_id;sensor_type;location;lat;lon;timestamp;P1;durP1;ratioP1;P2;durP2;ratioP2
56581;SDS011;42463;52.214;21.238;2024-01-07T00:00:35;7.70;;;3.10;;
56581;SDS011;42463;52.214;21.238;2024-01-07T00:03:28;9.30;;;3.50;;
56581;SDS011;42463;52.214;21.238;2024-01-07T00:06:01;5.00;;;3.50;;
56581;SDS011;42463;52.214;21.238;2024-01-07T00:08:34;8.10;;;3.50;;
56581;SDS011;42463;52.214;21.238;2024-01-07T00:11:07;7.30;;;3.60;;
56581;SDS011;42463;52.214;21.238;2024-01-07T00:13:40;5.00;;;3.40;;
56581;SDS011;42463;52.214;21.238;2024-01-07T00:16:13;6.60;;;3.90;;
56581;SDS011;42463;52.214;21.238;2024-01-07T00:18:46;5.10;;;3.20;;
56581;SDS011;42463;52.214;21.238;2024-01-07T00:21:19;5.70;;;3.10;;
56581;SDS011;42463;52.214;21.238;2024-01-07T00:23:52;7.80;;;3.80;;
56581;SDS011;42463;52.214;21.238;2024-01-07T00:26:26;5.90;;;3.50;;
56581;SDS011;42463;52.214;21.238;2024-01-07T00:28:59;5.60;;;3.40;;
56581;SDS011;42463;52.214;21.238;2024-01-07T00:31:32;5.10;;;3.00;;
56581;SDS011;42463;52.214;21.238;2024-01-07T00:34:05;5.70;;;3.30;;
56581;SDS011;42463;52.214;21.238;2024-01-07T00:36:38;5.60;;;3.40;;
56581;SDS011;42463;52.214;21.238;2024-01-07T00:39:11;7.60;;;3.80;;
56581;SDS011;42463;52.214;21.238;2024-01-07T00:41:44;6.00;;;3.60;;
56581;SDS011;42463;52.214;21.238;2024-01-07T00:44:17;4.30;;;3.20;;
56581;SDS011;42463;52.214;21.238;2024-01-07T00:46:50;5.80;;;3.20;;
56581;SDS011;42463;52.214;21.238;2024-01-07T00:49:23;4.40;;;3.00;;
56581;SDS011;42463;52.214;21.238;2024-01-07T00:51:57;6.00;;;3.80;;
56581;SDS011;42463;52.214;21.238;2024-01-07T00:54:30;4.70;;;3.30;;
56581;SDS011;42463;52.214;21.238;2024-01-07T00:57:04;6.00;;;3.10;;
56581;SDS011;42463;52.214;21.238;2024-01-07T00:59:36;4.50;;;3.00;;
56581;SDS011;42463;52.214;21.238;2024-01-07T01:02:10;6.50;;;3.10;;
56581;SDS011;42463;52.214;21.238;2024-01-07T01:04:42;5.30;;;3.30;;
56581;SDS011;42463;52.214;21.238;2024-01-07T01:07:16;5.70;;;3.30;;
56581;SDS011;42463;52.214;21.238;2024-01-07T01:09:49;5.10;;;3.20;;
56581;SDS011;42463;52.214;21.238;2024-01-07T01:12:22;4.00;;;3.30;;
56581;SDS011;42463;52.214;21.238;2024-01-07T01:14:55;5.60;;;3.50;;
56581;SDS011;42463;52.214;21.238;2024-01-07T01:17:29;5.30;;;3.20;;
56581;SDS011;42463;52.214;21.238;2024-01-07T01:20:02;6.10;;;3.70;;
56581;SDS011;42463;52.214;21.238;2024-01-07T01:25:09;5.40;;;3.20;;
56581;SDS011;42463;52.214;21.238;2024-01-07T01:27:42;4.70;;;3.20;;
56581;SDS011;42463;52.214;21.238;2024-01-07T01:30:15;5.70;;;3.60;;
56581;SDS011;42463;52.214;21.238;2024-01-07T01:32:48;5.20;;;3.10;;
56581;SDS011;42463;52.214;21.238;2024-01-07T01:35:20;4.70;;;2.90;;
56581;SDS011;42463;52.214;21.238;2024-01-07T01:37:53;6.60;;;3.20;;
56581;SDS011;42463;52.214;21.238;2024-01-07T01:40:27;5.70;;;3.10;;
56581;SDS011;42463;52.214;21.238;2024-01-07T01:43:01;5.60;;;3.60;;
56581;SDS011;42463;52.214;21.238;2024-01-07T01:45:34;5.90;;;3.20;;
56581;SDS011;42463;52.214;21.238;2024-01-07T01:48:08;5.00;;;3.40;;
56581;SDS011;42463;52.214;21.238;2024-01-07T01:50:41;5.10;;;3.40;;
56581;SDS011;42463;52.214;21.238;2024-01-07T01:53:13;6.10;;;3.40;;
56581;SDS011;42463;52.214;21.238;2024-01-07T01:55:47;4.70;;;3.30;;
56581;SDS011;42463;52.214;21.238;2024-01-07T01:58:20;5.00;;;3.40;;
56581;SDS011;42463;52.214;21.238;2024-01-07T02:04:15;5.50;;;3.50;;
56581;SDS011;42463;52.214;21.238;2024-01-07T02:06:48;6.60;;;3.30;;
56581;SDS011;42463;52.214;21.238;2024-01-07T02:09:20;4.30;;;3.10;;
56581;SDS011;42463;52.214;21.238;2024-01-07T02:12:06;4.70;;;3.10;;
56581;SDS011;42463;52.214;21.238;2024-01-07T02:14:41;4.10;;;3.10;;
56581;SDS011;42463;52.214;21.238;2024-01-07T02:17:13;4.40;;;3.10;;
56581;SDS011;42463;52.214;21.238;2024-01-07T02:19:47;5.00;;;3.10;;
56581;SDS011;42463;52.214;21.238;2024-01-07T02:22:19;7.00;;;3.50;;
56581;SDS011;42463;52.214;21.238;2024-01-07T02:24:52;3.60;;;3.20;;
56581;SDS011;42463;52.214;21.238;2024-01-07T02:27:24;4.90;;;3.30;;
56581;SDS011;42463;52.214;21.238;2024-01-07T02:29:57;4.10;;;2.90;;
56581;SDS011;42463;52.214;21.238;2024-01-07T02:32:30;5.80;;;3.50;;
56581;SDS011;42463;52.214;21.238;2024-01-07T02:35:06;4.80;;;3.10;;
56581;SDS011;42463;52.214;21.238;2024-01-07T02:37:38;5.40;;;3.10;;
56581;SDS011;42463;52.214;21.238;2024-01-07T02:40:13;4.70;;;3.20;;
56581;SDS011;42463;52.214;21.238;2024-01-07T02:42:46;4.80;;;3.30;;
56581;SDS011;42463;52.214;21.238;2024-01-07T02:45:19;4.20;;;2.90;;
56581;SDS011;42463;52.214;21.238;2024-01-07T02:47:51;5.20;;;3.30;;
56581;SDS011;42463;52.214;21.238;2024-01-07T02:50:24;4.90;;;2.80;;
56581;SDS011;42463;52.214;21.238;2024-01-07T02:52:56;4.00;;;2.70;;
56581;SDS011;42463;52.214;21.238;2024-01-07T02:55:29;4.60;;;3.20;;
56581;SDS011;42463;52.214;21.238;2024-01-07T02:58:02;5.90;;;3.40;;
56581;SDS011;42463;52.214;21.238;2024-01-07T03:00:35;4.70;;;3.20;;
56581;SDS011;42463;52.214;21.238;2024-01-07T03:03:07;5.50;;;3.20;;
56581;SDS011;42463;52.214;21.238;2024-01-07T03:05:40;4.30;;;3.00;;
56581;SDS011;42463;52.214;21.238;2024-01-07T03:08:13;3.90;;;2.90;;
56581;SDS011;42463;52.214;21.238;2024-01-07T03:10:45;3.90;;;2.90;;
56581;SDS011;42463;52.214;21.238;2024-01-07T03:13:18;7.10;;;3.00;;
56581;SDS011;42463;52.214;21.238;2024-01-07T03:15:51;4.80;;;2.80;;
56581;SDS011;42463;52.214;21.238;2024-01-07T03:18:26;6.00;;;3.10;;
56581;SDS011;42463;52.214;21.238;2024-01-07T03:21:01;5.20;;;3.20;;
56581;SDS011;42463;52.214;21.238;2024-01-07T03:23:35;4.90;;;3.30;;
56581;SDS011;42463;52.214;21.238;2024-01-07T03:26:08;5.20;;;3.20;;
56581;SDS011;42463;52.214;21.238;2024-01-07T03:28:41;4.60;;;3.60;;
56581;SDS011;42463;52.214;21.238;2024-01-07T03:31:15;4.30;;;2.80;;
56581;SDS011;42463;52.214;21.238;2024-01-07T03:33:53;4.30;;;3.40;;
56581;SDS011;42463;52.214;21.238;2024-01-07T03:36:26;3.50;;;2.80;;
56581;SDS011;42463;52.214;21.238;2024-01-07T03:38:58;3.50;;;2.80;;
56581;SDS011;42463;52.214;21.238;2024-01-07T03:41:31;4.90;;;3.20;;
56581;SDS011;42463;52.214;21.238;2024-01-07T03:44:04;3.80;;;2.80;;
56581;SDS011;42463;52.214;21.238;2024-01-07T03:46:37;4.80;;;3.40;;
56581;SDS011;42463;52.214;21.238;2024-01-07T03:49:09;4.40;;;3.00;;
56581;SDS011;42463;52.214;21.238;2024-01-07T03:51:42;4.10;;;3.00;;
56581;SDS011;42463;52.214;21.238;2024-01-07T03:54:15;3.60;;;2.70;;
56581;SDS011;42463;52.214;21.238;2024-01-07T03:56:47;6.10;;;2.80;;
56581;SDS011;42463;52.214;21.238;2024-01-07T03:59:20;3.50;;;2.70;;
56581;SDS011;42463;52.214;21.238;2024-01-07T04:01:55;4.70;;;3.30;;
56581;SDS011;42463;52.214;21.238;2024-01-07T04:04:28;4.20;;;3.00;;
56581;SDS011;42463;52.214;21.238;2024-01-07T04:07:00;4.50;;;3.20;;
56581;SDS011;42463;52.214;21.238;2024-01-07T04:09:33;5.10;;;3.00;;
56581;SDS011;42463;52.214;21.238;2024-01-07T04:12:07;3.30;;;3.00;;
56581;SDS011;42463;52.214;21.238;2024-01-07T04:14:39;4.00;;;2.90;;
56581;SDS011;42463;52.214;21.238;2024-01-07T04:17:13;4.70;;;2.80;;
56581;SDS011;42463;52.214;21.238;2024-01-07T04:19:46;3.10;;;2.50;;
56581;SDS011;42463;52.214;21.238;2024-01-07T04:22:19;5.40;;;3.30;;
56581;SDS011;42463;52.214;21.238;2024-01-07T04:24:51;4.50;;;2.70;;
56581;SDS011;42463;52.214;21.238;2024-01-07T04:27:24;5.00;;;3.20;;
56581;SDS011;42463;52.214;21.238;2024-01-07T04:29:56;5.10;;;3.30;;
56581;SDS011;42463;52.214;21.238;2024-01-07T04:32:29;3.60;;;2.70;;
56581;SDS011;42463;52.214;21.238;2024-01-07T04:35:02;4.00;;;2.90;;
56581;SDS011;42463;52.214;21.238;2024-01-07T04:37:37;4.60;;;2.90;;
56581;SDS011;42463;52.214;21.238;2024-01-07T04:40:11;4.30;;;2.80;;
56581;SDS011;42463;52.214;21.238;2024-01-07T04:42:44;4.80;;;2.90;;
56581;SDS011;42463;52.214;21.238;2024-01-07T04:45:17;4.10;;;3.10;;
56581;SDS011;42463;52.214;21.238;2024-01-07T04:47:50;3.50;;;2.70;;
56581;SDS011;42463;52.214;21.238;2024-01-07T04:50:22;4.00;;;3.00;;
56581;SDS011;42463;52.214;21.238;2024-01-07T04:52:55;5.00;;;2.60;;
56581;SDS011;42463;52.214;21.238;2024-01-07T04:55:29;3.60;;;2.70;;
56581;SDS011;42463;52.214;21.238;2024-01-07T04:58:02;4.50;;;3.00;;
56581;SDS011;42463;52.214;21.238;2024-01-07T05:00:35;4.00;;;2.90;;
56581;SDS011;42463;52.214;21.238;2024-01-07T05:03:07;4.60;;;3.20;;
56581;SDS011;42463;52.214;21.238;2024-01-07T05:05:40;4.80;;;2.80;;
56581;SDS011;42463;52.214;21.238;2024-01-07T05:08:13;4.10;;;2.60;;
56581;SDS011;42463;52.214;21.238;2024-01-07T05:10:45;3.30;;;2.80;;
56581;SDS011;42463;52.214;21.238;2024-01-07T05:13:18;3.50;;;2.90;;
56581;SDS011;42463;52.214;21.238;2024-01-07T05:15:51;3.90;;;2.80;;
56581;SDS011;42463;52.214;21.238;2024-01-07T05:18:24;4.70;;;2.90;;
56581;SDS011;42463;52.214;21.238;2024-01-07T05:20:58;3.50;;;2.70;;
56581;SDS011;42463;52.214;21.238;2024-01-07T05:23:31;3.80;;;2.80;;
56581;SDS011;42463;52.214;21.238;2024-01-07T05:26:04;3.90;;;3.00;;
56581;SDS011;42463;52.214;21.238;2024-01-07T05:28:37;5.10;;;2.70;;
56581;SDS011;42463;52.214;21.238;2024-01-07T05:31:16;5.30;;;3.10;;
56581;SDS011;42463;52.214;21.238;2024-01-07T05:33:50;4.70;;;3.10;;
56581;SDS011;42463;52.214;21.238;2024-01-07T05:36:23;4.30;;;3.00;;
56581;SDS011;42463;52.214;21.238;2024-01-07T05:38:56;4.50;;;2.90;;
56581;SDS011;42463;52.214;21.238;2024-01-07T05:41:29;3.60;;;2.80;;
56581;SDS011;42463;52.214;21.238;2024-01-07T05:44:02;3.50;;;2.60;;
56581;SDS011;42463;52.214;21.238;2024-01-07T05:46:35;3.80;;;2.80;;
56581;SDS011;42463;52.214;21.238;2024-01-07T05:49:10;3.30;;;2.70;;
56581;SDS011;42463;52.214;21.238;2024-01-07T05:51:43;4.40;;;2.60;;
56581;SDS011;42463;52.214;21.238;2024-01-07T05:54:16;3.70;;;2.80;;
56581;SDS011;42463;52.214;21.238;2024-01-07T05:56:48;3.60;;;2.80;;
56581;SDS011;42463;52.214;21.238;2024-01-07T05:59:21;3.30;;;2.70;;
56581;SDS011;42463;52.214;21.238;2024-01-07T06:02:01;3.60;;;2.50;;
56581;SDS011;42463;52.214;21.238;2024-01-07T06:04:34;4.90;;;2.90;;
56581;SDS011;42463;52.214;21.238;2024-01-07T06:07:07;5.50;;;2.60;;
56581;SDS011;42463;52.214;21.238;2024-01-07T06:09:40;2.70;;;2.50;;
56581;SDS011;42463;52.214;21.238;2024-01-07T06:12:13;4.30;;;2.60;;
56581;SDS011;42463;52.214;21.238;2024-01-07T06:14:46;4.80;;;2.60;;
56581;SDS011;42463;52.214;21.238;2024-01-07T06:17:19;3.20;;;2.60;;
56581;SDS011;42463;52.214;21.238;2024-01-07T06:19:51;3.20;;;2.50;;
56581;SDS011;42463;52.214;21.238;2024-01-07T06:22:25;3.70;;;2.80;;
56581;SDS011;42463;52.214;21.238;2024-01-07T06:24:57;3.60;;;2.70;;
56581;SDS011;42463;52.214;21.238;2024-01-07T06:27:30;3.20;;;2.40;;
56581;SDS011;42463;52.214;21.238;2024-01-07T06:30:03;2.90;;;2.50;;
56581;SDS011;42463;52.214;21.238;2024-01-07T06:32:38;2.90;;;2.30;;
56581;SDS011;42463;52.214;21.238;2024-01-07T06:35:11;4.80;;;2.60;;
56581;SDS011;42463;52.214;21.238;2024-01-07T06:37:43;3.10;;;2.50;;
56581;SDS011;42463;52.214;21.238;2024-01-07T06:40:16;4.40;;;2.40;;
56581;SDS011;42463;52.214;21.238;2024-01-07T06:42:49;4.30;;;2.60;;
56581;SDS011;42463;52.214;21.238;2024-01-07T06:45:22;2.80;;;2.10;;
56581;SDS011;42463;52.214;21.238;2024-01-07T06:47:55;5.80;;;2.60;;
56581;SDS011;42463;52.214;21.238;2024-01-07T06:50:28;4.00;;;2.30;;
56581;SDS011;42463;52.214;21.238;2024-01-07T06:53:01;3.80;;;2.70;;
56581;SDS011;42463;52.214;21.238;2024-01-07T06:55:34;2.50;;;2.10;;
56581;SDS011;42463;52.214;21.238;2024-01-07T06:58:06;3.10;;;2.20;;
56581;SDS011;42463;52.214;21.238;2024-01-07T07:00:39;4.00;;;3.40;;
56581;SDS011;42463;52.214;21.238;2024-01-07T07:03:12;4.00;;;2.30;;
56581;SDS011;42463;52.214;21.238;2024-01-07T07:05:45;2.90;;;2.50;;
56581;SDS011;42463;52.214;21.238;2024-01-07T07:08:17;3.80;;;2.50;;
56581;SDS011;42463;52.214;21.238;2024-01-07T07:10:50;2.70;;;2.10;;
56581;SDS011;42463;52.214;21.238;2024-01-07T07:13:23;3.00;;;2.30;;
56581;SDS011;42463;52.214;21.238;2024-01-07T07:15:56;5.40;;;2.50;;
56581;SDS011;42463;52.214;21.238;2024-01-07T07:18:28;3.00;;;2.30;;
56581;SDS011;42463;52.214;21.238;2024-01-07T07:21:01;5.10;;;2.70;;
56581;SDS011;42463;52.214;21.238;2024-01-07T07:23:35;5.30;;;2.50;;
56581;SDS011;42463;52.214;21.238;2024-01-07T07:26:07;3.70;;;2.50;;
56581;SDS011;42463;52.214;21.238;2024-01-07T07:28:40;3.10;;;2.30;;
56581;SDS011;42463;52.214;21.238;2024-01-07T07:31:13;3.70;;;2.20;;
56581;SDS011;42463;52.214;21.238;2024-01-07T07:33:46;3.40;;;2.10;;
56581;SDS011;42463;52.214;21.238;2024-01-07T07:36:19;3.70;;;2.30;;
56581;SDS011;42463;52.214;21.238;2024-01-07T07:38:52;5.60;;;2.70;;
56581;SDS011;42463;52.214;21.238;2024-01-07T07:41:24;2.70;;;2.10;;
56581;SDS011;42463;52.214;21.238;2024-01-07T07:43:58;2.80;;;2.10;;
56581;SDS011;42463;52.214;21.238;2024-01-07T07:46:31;3.10;;;2.20;;
56581;SDS011;42463;52.214;21.238;2024-01-07T07:49:03;2.70;;;2.10;;
56581;SDS011;42463;52.214;21.238;2024-01-07T07:51:36;3.00;;;2.00;;
56581;SDS011;42463;52.214;21.238;2024-01-07T07:54:10;2.10;;;1.90;;
56581;SDS011;42463;52.214;21.238;2024-01-07T07:56:42;2.70;;;2.10;;
56581;SDS011;42463;52.214;21.238;2024-01-07T07:59:15;3.50;;;2.50;;
56581;SDS011;42463;52.214;21.238;2024-01-07T08:01:48;2.80;;;2.20;;
56581;SDS011;42463;52.214;21.238;2024-01-07T08:04:21;2.60;;;2.00;;
56581;SDS011;42463;52.214;21.238;2024-01-07T08:06:53;2.70;;;2.00;;
56581;SDS011;42463;52.214;21.238;2024-01-07T08:09:26;4.70;;;2.70;;
56581;SDS011;42463;52.214;21.238;2024-01-07T08:11:59;4.20;;;2.20;;
56581;SDS011;42463;52.214;21.238;2024-01-07T08:14:32;2.70;;;2.00;;
56581;SDS011;42463;52.214;21.238;2024-01-07T08:17:05;3.60;;;2.30;;
56581;SDS011;42463;52.214;21.238;2024-01-07T08:19:38;7.70;;;2.50;;
56581;SDS011;42463;52.214;21.238;2024-01-07T08:22:11;4.50;;;2.30;;
56581;SDS011;42463;52.214;21.238;2024-01-07T08:24:44;5.20;;;2.30;;
56581;SDS011;42463;52.214;21.238;2024-01-07T08:27:16;9.00;;;2.20;;
56581;SDS011;42463;52.214;21.238;2024-01-07T08:29:49;8.30;;;2.50;;
56581;SDS011;42463;52.214;21.238;2024-01-07T08:32:22;3.30;;;2.10;;
56581;SDS011;42463;52.214;21.238;2024-01-07T08:34:54;2.90;;;2.00;;
56581;SDS011;42463;52.214;21.238;2024-01-07T08:37:27;6.40;;;2.10;;
56581;SDS011;42463;52.214;21.238;2024-01-07T08:40:00;4.50;;;2.40;;
56581;SDS011;42463;52.214;21.238;2024-01-07T08:42:33;7.10;;;2.80;;
56581;SDS011;42463;52.214;21.238;2024-01-07T08:45:08;2.20;;;2.00;;
56581;SDS011;42463;52.214;21.238;2024-01-07T08:47:41;13.10;;;2.40;;
56581;SDS011;42463;52.214;21.238;2024-01-07T08:50:14;4.80;;;2.60;;
56581;SDS011;42463;52.214;21.238;2024-01-07T08:52:47;6.70;;;2.60;;
56581;SDS011;42463;52.214;21.238;2024-01-07T08:55:19;5.60;;;2.60;;
56581;SDS011;42463;52.214;21.238;2024-01-07T08:57:52;4.10;;;2.30;;
56581;SDS011;42463;52.214;21.238;2024-01-07T09:00:25;6.50;;;2.10;;
56581;SDS011;42463;52.214;21.238;2024-01-07T09:03:01;12.10;;;2.60;;
56581;SDS011;42463;52.214;21.238;2024-01-07T09:05:34;14.30;;;3.50;;
56581;SDS011;42463;52.214;21.238;2024-01-07T09:08:08;7.70;;;2.40;;
56581;SDS011;42463;52.214;21.238;2024-01-07T09:10:43;6.60;;;2.20;;
56581;SDS011;42463;52.214;21.238;2024-01-07T09:13:16;7.90;;;2.20;;
56581;SDS011;42463;52.214;21.238;2024-01-07T09:15:49;4.30;;;2.50;;
56581;SDS011;42463;52.214;21.238;2024-01-07T09:18:22;4.30;;;2.50;;
56581;SDS011;42463;52.214;21.238;2024-01-07T09:20:55;9.70;;;2.40;;
56581;SDS011;42463;52.214;21.238;2024-01-07T09:23:28;3.80;;;2.10;;
56581;SDS011;42463;52.214;21.238;2024-01-07T09:26:00;3.60;;;2.10;;
56581;SDS011;42463;52.214;21.238;2024-01-07T09:28:33;4.90;;;2.20;;
56581;SDS011;42463;52.214;21.238;2024-01-07T09:31:06;7.60;;;2.20;;
56581;SDS011;42463;52.214;21.238;2024-01-07T09:33:39;8.80;;;2.50;;
56581;SDS011;42463;52.214;21.238;2024-01-07T09:36:11;6.60;;;2.10;;
56581;SDS011;42463;52.214;21.238;2024-01-07T09:38:45;5.30;;;2.10;;
56581;SDS011;42463;52.214;21.238;2024-01-07T09:41:18;8.60;;;2.40;;
56581;SDS011;42463;52.214;21.238;2024-01-07T09:43:50;6.40;;;2.50;;
56581;SDS011;42463;52.214;21.238;2024-01-07T09:46:24;6.10;;;2.40;;
56581;SDS011;42463;52.214;21.238;2024-01-07T09:48:59;3.90;;;2.60;;
56581;SDS011;42463;52.214;21.238;2024-01-07T09:51:32;4.90;;;2.20;;
56581;SDS011;42463;52.214;21.238;2024-01-07T09:54:08;6.00;;;2.50;;
56581;SDS011;42463;52.214;21.238;2024-01-07T09:56:56;7.90;;;2.70;;
56581;SDS011;42463;52.214;21.238;2024-01-07T09:59:32;4.60;;;2.30;;
56581;SDS011;42463;52.214;21.238;2024-01-07T10:02:06;5.20;;;2.30;;
56581;SDS011;42463;52.214;21.238;2024-01-07T10:04:41;8.20;;;2.80;;
56581;SDS011;42463;52.214;21.238;2024-01-07T10:07:15;12.90;;;3.30;;
56581;SDS011;42463;52.214;21.238;2024-01-07T10:09:47;13.00;;;2.80;;
56581;SDS011;42463;52.214;21.238;2024-01-07T10:12:23;14.00;;;2.80;;
56581;SDS011;42463;52.214;21.238;2024-01-07T10:14:56;9.40;;;2.80;;
56581;SDS011;42463;52.214;21.238;2024-01-07T10:17:30;10.80;;;3.00;;
56581;SDS011;42463;52.214;21.238;2024-01-07T10:20:03;8.90;;;2.80;;
56581;SDS011;42463;52.214;21.238;2024-01-07T10:22:39;11.10;;;3.00;;
56581;SDS011;42463;52.214;21.238;2024-01-07T10:25:18;13.20;;;3.20;;
56581;SDS011;42463;52.214;21.238;2024-01-07T10:30:22;12.60;;;3.30;;
56581;SDS011;42463;52.214;21.238;2024-01-07T10:32:58;8.80;;;3.30;;
56581;SDS011;42463;52.214;21.238;2024-01-07T10:35:34;11.70;;;3.20;;
56581;SDS011;42463;52.214;21.238;2024-01-07T10:38:12;6.50;;;2.70;;
56581;SDS011;42463;52.214;21.238;2024-01-07T10:40:45;11.20;;;3.10;;
56581;SDS011;42463;52.214;21.238;2024-01-07T10:43:18;7.80;;;2.90;;
56581;SDS011;42463;52.214;21.238;2024-01-07T10:48:24;7.30;;;2.90;;
56581;SDS011;42463;52.214;21.238;2024-01-07T10:51:02;11.30;;;3.20;;
56581;SDS011;42463;52.214;21.238;2024-01-07T10:53:35;8.30;;;3.20;;
56581;SDS011;42463;52.214;21.238;2024-01-07T10:56:13;6.50;;;2.50;;
56581;SDS011;42463;52.214;21.238;2024-01-07T10:58:52;7.70;;;3.20;;
56581;SDS011;42463;52.214;21.238;2024-01-07T11:01:26;7.70;;;2.70;;
56581;SDS011;42463;52.214;21.238;2024-01-07T11:04:04;8.30;;;2.90;;
56581;SDS011;42463;52.214;21.238;2024-01-07T11:06:45;9.20;;;2.50;;
56581;SDS011;42463;52.214;21.238;2024-01-07T11:09:26;6.50;;;2.70;;
56581;SDS011;42463;52.214;21.238;2024-01-07T11:12:06;5.80;;;2.50;;
56581;SDS011;42463;52.214;21.238;2024-01-07T11:14:40;5.30;;;2.40;;
56581;SDS011;42463;52.214;21.238;2024-01-07T11:17:14;7.40;;;3.10;;
56581;SDS011;42463;52.214;21.238;2024-01-07T11:20:20;6.00;;;2.80;;
56581;SDS011;42463;52.214;21.238;2024-01-07T11:23:03;3.90;;;2.40;;
56581;SDS011;42463;52.214;21.238;2024-01-07T11:26:03;5.80;;;2.40;;
56581;SDS011;42463;52.214;21.238;2024-01-07T11:28:52;8.30;;;2.80;;
56581;SDS011;42463;52.214;21.238;2024-01-07T11:31:44;5.70;;;2.50;;
56581;SDS011;42463;52.214;21.238;2024-01-07T11:34:39;7.30;;;2.90;;
56581;SDS011;42463;52.214;21.238;2024-01-07T11:37:13;5.90;;;2.90;;
56581;SDS011;42463;52.214;21.238;2024-01-07T11:39:46;7.10;;;2.90;;
56581;SDS011;42463;52.214;21.238;2024-01-07T11:42:22;6.10;;;2.50;;
56581;SDS011;42463;52.214;21.238;2024-01-07T11:44:55;5.30;;;2.80;;
56581;SDS011;42463;52.214;21.238;2024-01-07T11:47:28;5.40;;;3.00;;
56581;SDS011;42463;52.214;21.238;2024-01-07T11:50:01;7.30;;;2.40;;
56581;SDS011;42463;52.214;21.238;2024-01-07T11:52:34;5.50;;;2.50;;
56581;SDS011;42463;52.214;21.238;2024-01-07T11:55:09;5.60;;;2.50;;
56581;SDS011;42463;52.214;21.238;2024-01-07T11:57:43;6.80;;;2.70;;
56581;SDS011;42463;52.214;21.238;2024-01-07T12:00:17;4.50;;;2.50;;
56581;SDS011;42463;52.214;21.238;2024-01-07T12:02:50;3.30;;;2.10;;
56581;SDS011;42463;52.214;21.238;2024-01-07T12:05:23;6.10;;;2.60;;
56581;SDS011;42463;52.214;21.238;2024-01-07T12:07:55;4.40;;;2.50;;
56581;SDS011;42463;52.214;21.238;2024-01-07T12:10:28;3.80;;;2.20;;
56581;SDS011;42463;52.214;21.238;2024-01-07T12:13:01;5.00;;;2.70;;
